Details for Ryanair at EGCC




Go Back


Latest METAR
Local Time

EGCC 211420Z VRB03KT 9999 SCT036 BKN043 07/01 Q1027 NOSIG

21/02/2018, 14:54:02

Description
Results
Ryanair Logo
Number of Pilots based at EGCC
2 Pilots Based here
Number of Ryanair Flights Departed from EGCC
34 Flights Departed
Number of Ryanair Flights Arrived at EGCC
36 Flights Arrived
Number of Ryanair Schedules Departing from EGCC
98 Schedules
Number of Ryanair Schedules Arriving at EGCC
96 Schedules
Number of Ryanair Schedules Departing from EGCC availible today
39 Schedules Today
Number of Ryanair Schedules Arriving at EGCC availible today
39 Schedules Today
Average Landing Rate at EGCC
-219 fpm
Ryanair Average Landing Rate at EGCC
-165 fpm
Total Fuel Purchased at EGCC by Ryanair
277,980.03 kgs / 612,834.77 lbs

Pilots Based at EGCC


Pilot ID
Pilot Name
Pilot Rank
No. of Flights
No. of Flying Hours
Kevin Himsworth
7
14.38
Andrew Sutcliffe
332
1259.12
Content